sensor_id;sensor_type;location;lat;lon;timestamp;pressure;altitude;pressure_sealevel;temperature;humidity
74778;BME280;63298;53.164;8.610;2023-12-29T00:02:21;100527.97;;;10.90;73.65
74778;BME280;63298;53.164;8.610;2023-12-29T00:04:57;100493.72;;;10.74;73.73
74778;BME280;63298;53.164;8.610;2023-12-29T00:07:23;100510.72;;;10.82;73.73
74778;BME280;63298;53.164;8.610;2023-12-29T00:10:11;100487.97;;;10.75;73.26
74778;BME280;63298;53.164;8.610;2023-12-29T00:12:40;100520.78;;;10.89;73.35
74778;BME280;63298;53.164;8.610;2023-12-29T00:15:36;100524.63;;;10.88;73.61
74778;BME280;63298;53.164;8.610;2023-12-29T00:18:21;100480.50;;;10.76;73.85
74778;BME280;63298;53.164;8.610;2023-12-29T00:21:36;100471.16;;;10.77;73.84
74778;BME280;63298;53.164;8.610;2023-12-29T00:24:41;100484.94;;;10.77;74.18
74778;BME280;63298;53.164;8.610;2023-12-29T00:27:16;100496.50;;;10.74;74.28
74778;BME280;63298;53.164;8.610;2023-12-29T00:29:42;100480.78;;;10.74;73.85
74778;BME280;63298;53.164;8.610;2023-12-29T00:32:13;100475.25;;;10.74;74.02
74778;BME280;63298;53.164;8.610;2023-12-29T00:34:52;100478.59;;;10.76;74.58
74778;BME280;63298;53.164;8.610;2023-12-29T00:40:43;100476.47;;;10.67;75.29
74778;BME280;63298;53.164;8.610;2023-12-29T00:43:25;100504.75;;;10.74;75.00
74778;BME280;63298;53.164;8.610;2023-12-29T00:46:02;100472.03;;;10.66;74.94
74778;BME280;63298;53.164;8.610;2023-12-29T00:52:40;100487.69;;;10.60;75.25
74778;BME280;63298;53.164;8.610;2023-12-29T01:12:17;100465.72;;;10.65;75.28
74778;BME280;63298;53.164;8.610;2023-12-29T01:15:17;100481.06;;;10.61;76.01
74778;BME280;63298;53.164;8.610;2023-12-29T01:17:55;100467.25;;;10.61;75.57
74778;BME280;63298;53.164;8.610;2023-12-29T01:20:29;100459.00;;;10.61;76.05
74778;BME280;63298;53.164;8.610;2023-12-29T01:22:55;100449.41;;;10.64;76.28
74778;BME280;63298;53.164;8.610;2023-12-29T01:25:20;100489.63;;;10.76;75.33
74778;BME280;63298;53.164;8.610;2023-12-29T01:27:51;100449.53;;;10.57;75.93
74778;BME280;63298;53.164;8.610;2023-12-29T01:30:19;100464.13;;;10.69;76.30
74778;BME280;63298;53.164;8.610;2023-12-29T01:32:50;100449.06;;;10.60;75.67
74778;BME280;63298;53.164;8.610;2023-12-29T01:35:19;100471.06;;;10.72;75.56
74778;BME280;63298;53.164;8.610;2023-12-29T01:37:54;100454.16;;;10.68;75.28
74778;BME280;63298;53.164;8.610;2023-12-29T01:40:30;100478.13;;;10.79;75.55
74778;BME280;63298;53.164;8.610;2023-12-29T01:43:30;100440.28;;;10.63;75.31
74778;BME280;63298;53.164;8.610;2023-12-29T01:48:57;100443.69;;;10.54;76.95
74778;BME280;63298;53.164;8.610;2023-12-29T01:51:57;100451.22;;;10.58;76.91
74778;BME280;63298;53.164;8.610;2023-12-29T01:54:44;100460.97;;;10.49;77.10
74778;BME280;63298;53.164;8.610;2023-12-29T01:57:30;100469.09;;;10.56;77.54
74778;BME280;63298;53.164;8.610;2023-12-29T02:00:06;100445.63;;;10.42;77.24
74778;BME280;63298;53.164;8.610;2023-12-29T02:02:52;100431.41;;;10.33;77.76
74778;BME280;63298;53.164;8.610;2023-12-29T02:08:10;100476.03;;;10.30;78.90
74778;BME280;63298;53.164;8.610;2023-12-29T02:11:05;100458.66;;;10.18;80.65
74778;BME280;63298;53.164;8.610;2023-12-29T02:13:36;100432.00;;;9.95;80.57
74778;BME280;63298;53.164;8.610;2023-12-29T02:16:10;100464.66;;;10.15;80.83
74778;BME280;63298;53.164;8.610;2023-12-29T02:18:45;100440.69;;;10.04;81.49
74778;BME280;63298;53.164;8.610;2023-12-29T02:22:02;100442.38;;;10.05;82.13
74778;BME280;63298;53.164;8.610;2023-12-29T02:24:37;100457.94;;;10.11;80.88
74778;BME280;63298;53.164;8.610;2023-12-29T02:32:55;100418.34;;;9.88;82.78
74778;BME280;63298;53.164;8.610;2023-12-29T02:35:31;100436.03;;;10.04;83.76
74778;BME280;63298;53.164;8.610;2023-12-29T02:38:18;100423.84;;;10.00;84.23
74778;BME280;63298;53.164;8.610;2023-12-29T02:40:52;100390.91;;;9.82;83.84
74778;BME280;63298;53.164;8.610;2023-12-29T02:43:36;100395.72;;;9.86;83.83
74778;BME280;63298;53.164;8.610;2023-12-29T02:46:23;100406.34;;;9.94;83.51
74778;BME280;63298;53.164;8.610;2023-12-29T02:49:09;100397.59;;;9.97;83.19
74778;BME280;63298;53.164;8.610;2023-12-29T02:51:40;100383.56;;;9.99;82.83
74778;BME280;63298;53.164;8.610;2023-12-29T02:54:23;100365.88;;;9.95;82.69
74778;BME280;63298;53.164;8.610;2023-12-29T02:57:03;100358.34;;;9.90;82.03
74778;BME280;63298;53.164;8.610;2023-12-29T03:02:48;100383.44;;;10.06;82.15
74778;BME280;63298;53.164;8.610;2023-12-29T03:05:20;100379.84;;;10.05;83.09
74778;BME280;63298;53.164;8.610;2023-12-29T03:07:48;100381.56;;;9.94;83.12
74778;BME280;63298;53.164;8.610;2023-12-29T03:10:19;100379.75;;;10.00;82.69
74778;BME280;63298;53.164;8.610;2023-12-29T03:12:50;100369.59;;;9.89;83.48
74778;BME280;63298;53.164;8.610;2023-12-29T03:15:24;100362.56;;;9.81;84.11
74778;BME280;63298;53.164;8.610;2023-12-29T03:18:07;100380.09;;;9.92;84.69
74778;BME280;63298;53.164;8.610;2023-12-29T03:20:38;100380.72;;;9.82;83.88
74778;BME280;63298;53.164;8.610;2023-12-29T03:23:40;100397.53;;;9.81;85.89
74778;BME280;63298;53.164;8.610;2023-12-29T03:26:12;100398.72;;;9.85;85.76
74778;BME280;63298;53.164;8.610;2023-12-29T03:29:01;100433.06;;;9.94;85.11
74778;BME280;63298;53.164;8.610;2023-12-29T03:35:05;100550.06;;;9.03;76.63
74778;BME280;63298;53.164;8.610;2023-12-29T03:37:45;100518.34;;;8.59;79.12
74778;BME280;63298;53.164;8.610;2023-12-29T03:40:14;100482.09;;;8.14;78.68
74778;BME280;63298;53.164;8.610;2023-12-29T03:43:14;100452.50;;;7.80;79.16
74778;BME280;63298;53.164;8.610;2023-12-29T03:52:58;100419.25;;;7.33;80.56
74778;BME280;63298;53.164;8.610;2023-12-29T03:58:56;100449.28;;;7.47;81.81
74778;BME280;63298;53.164;8.610;2023-12-29T04:08:49;100399.50;;;7.43;82.39
74778;BME280;63298;53.164;8.610;2023-12-29T04:11:44;100368.25;;;7.44;83.26
74778;BME280;63298;53.164;8.610;2023-12-29T04:25:26;100384.56;;;7.75;84.62
74778;BME280;63298;53.164;8.610;2023-12-29T04:31:17;100363.94;;;8.03;84.50
74778;BME280;63298;53.164;8.610;2023-12-29T04:34:29;100362.44;;;8.18;83.71
74778;BME280;63298;53.164;8.610;2023-12-29T04:37:08;100368.53;;;8.20;84.07
74778;BME280;63298;53.164;8.610;2023-12-29T04:40:15;100386.16;;;8.31;84.10
74778;BME280;63298;53.164;8.610;2023-12-29T04:43:10;100355.47;;;8.34;86.28
74778;BME280;63298;53.164;8.610;2023-12-29T04:45:52;100400.94;;;8.60;86.78
74778;BME280;63298;53.164;8.610;2023-12-29T04:48:21;100387.91;;;8.55;87.78
74778;BME280;63298;53.164;8.610;2023-12-29T04:51:09;100357.59;;;8.62;84.58
74778;BME280;63298;53.164;8.610;2023-12-29T04:53:58;100358.28;;;8.69;86.40
74778;BME280;63298;53.164;8.610;2023-12-29T04:56:38;100369.41;;;8.74;84.79
74778;BME280;63298;53.164;8.610;2023-12-29T04:59:03;100370.50;;;8.85;84.57
74778;BME280;63298;53.164;8.610;2023-12-29T05:01:55;100396.00;;;9.03;85.83
74778;BME280;63298;53.164;8.610;2023-12-29T05:04:51;100376.03;;;8.96;85.17
74778;BME280;63298;53.164;8.610;2023-12-29T05:07:20;100384.78;;;9.05;85.21
74778;BME280;63298;53.164;8.610;2023-12-29T05:09:48;100348.16;;;9.04;85.09
74778;BME280;63298;53.164;8.610;2023-12-29T05:12:15;100357.72;;;9.14;84.95
74778;BME280;63298;53.164;8.610;2023-12-29T05:18:15;100375.91;;;9.38;85.41
74778;BME280;63298;53.164;8.610;2023-12-29T05:20:53;100354.88;;;9.32;85.15
74778;BME280;63298;53.164;8.610;2023-12-29T05:23:35;100378.53;;;9.56;84.94
74778;BME280;63298;53.164;8.610;2023-12-29T05:26:03;100373.25;;;9.54;83.99
74778;BME280;63298;53.164;8.610;2023-12-29T05:28:29;100373.50;;;9.53;83.38
74778;BME280;63298;53.164;8.610;2023-12-29T05:30:54;100358.66;;;9.54;84.18
74778;BME280;63298;53.164;8.610;2023-12-29T05:33:20;100348.47;;;9.54;82.94
74778;BME280;63298;53.164;8.610;2023-12-29T05:35:57;100395.75;;;9.63;83.75
74778;BME280;63298;53.164;8.610;2023-12-29T05:38:33;100355.69;;;9.44;83.28
74778;BME280;63298;53.164;8.610;2023-12-29T05:41:08;100398.03;;;9.66;82.33
74778;BME280;63298;53.164;8.610;2023-12-29T05:44:00;100427.00;;;9.69;83.12
74778;BME280;63298;53.164;8.610;2023-12-29T05:46:28;100429.41;;;9.65;82.87
74778;BME280;63298;53.164;8.610;2023-12-29T05:48:57;100393.25;;;9.50;82.03
74778;BME280;63298;53.164;8.610;2023-12-29T05:51:26;100386.19;;;9.54;82.72
74778;BME280;63298;53.164;8.610;2023-12-29T05:53:51;100415.28;;;9.62;82.66
74778;BME280;63298;53.164;8.610;2023-12-29T05:56:38;100407.59;;;9.64;82.29
74778;BME280;63298;53.164;8.610;2023-12-29T05:59:36;100418.38;;;9.65;81.92
74778;BME280;63298;53.164;8.610;2023-12-29T06:02:14;100419.94;;;9.61;82.80
74778;BME280;63298;53.164;8.610;2023-12-29T06:08:38;100447.00;;;9.64;81.69
74778;BME280;63298;53.164;8.610;2023-12-29T06:11:35;100441.84;;;9.68;82.42
74778;BME280;63298;53.164;8.610;2023-12-29T06:17:46;100457.16;;;9.75;81.04
74778;BME280;63298;53.164;8.610;2023-12-29T06:20:22;100431.81;;;9.62;81.14
74778;BME280;63298;53.164;8.610;2023-12-29T06:23:08;100432.16;;;9.65;81.06
74778;BME280;63298;53.164;8.610;2023-12-29T06:31:19;100404.50;;;9.60;80.74
74778;BME280;63298;53.164;8.610;2023-12-29T06:33:54;100401.63;;;9.55;79.69
74778;BME280;63298;53.164;8.610;2023-12-29T06:39:45;100446.03;;;9.70;78.97
74778;BME280;63298;53.164;8.610;2023-12-29T06:49:08;100421.25;;;9.59;78.68
74778;BME280;63298;53.164;8.610;2023-12-29T06:52:15;100443.63;;;9.74;76.83
74778;BME280;63298;53.164;8.610;2023-12-29T06:55:03;100417.66;;;9.58;76.99
74778;BME280;63298;53.164;8.610;2023-12-29T06:57:48;100409.88;;;9.67;77.62
74778;BME280;63298;53.164;8.610;2023-12-29T07:00:40;100422.09;;;9.71;76.84
74778;BME280;63298;53.164;8.610;2023-12-29T07:03:59;100438.00;;;9.80;76.67
74778;BME280;63298;53.164;8.610;2023-12-29T07:09:54;100434.66;;;9.78;77.50
74778;BME280;63298;53.164;8.610;2023-12-29T07:12:54;100423.88;;;9.65;76.47
74778;BME280;63298;53.164;8.610;2023-12-29T07:15:32;100423.88;;;9.65;76.55
74778;BME280;63298;53.164;8.610;2023-12-29T07:18:43;100454.41;;;9.75;75.61
74778;BME280;63298;53.164;8.610;2023-12-29T07:21:32;100429.88;;;9.62;77.24
74778;BME280;63298;53.164;8.610;2023-12-29T07:24:21;100418.38;;;9.65;76.81
74778;BME280;63298;53.164;8.610;2023-12-29T07:27:10;100403.28;;;9.68;77.00
74778;BME280;63298;53.164;8.610;2023-12-29T07:29:58;100399.22;;;9.70;77.39
74778;BME280;63298;53.164;8.610;2023-12-29T07:32:38;100432.38;;;9.75;77.95
74778;BME280;63298;53.164;8.610;2023-12-29T07:35:30;100407.72;;;9.57;78.49
74778;BME280;63298;53.164;8.610;2023-12-29T07:41:54;100422.09;;;9.47;78.86
74778;BME280;63298;53.164;8.610;2023-12-29T07:48:02;100412.53;;;9.50;78.36
74778;BME280;63298;53.164;8.610;2023-12-29T07:50:46;100430.25;;;9.66;78.21
74778;BME280;63298;53.164;8.610;2023-12-29T07:53:24;100384.16;;;9.49;78.48
74778;BME280;63298;53.164;8.610;2023-12-29T07:55:55;100393.50;;;9.60;78.88
74778;BME280;63298;53.164;8.610;2023-12-29T07:58:52;100421.03;;;9.60;78.91
74778;BME280;63298;53.164;8.610;2023-12-29T08:02:07;100433.00;;;9.66;78.93
74778;BME280;63298;53.164;8.610;2023-12-29T08:04:53;100406.06;;;9.56;79.35
74778;BME280;63298;53.164;8.610;2023-12-29T08:10:52;100393.94;;;9.57;78.37
74778;BME280;63298;53.164;8.610;2023-12-29T08:13:26;100419.69;;;9.63;78.47
74778;BME280;63298;53.164;8.610;2023-12-29T08:15:58;100402.72;;;9.54;78.56
74778;BME280;63298;53.164;8.610;2023-12-29T08:18:58;100415.91;;;9.52;78.08
74778;BME280;63298;53.164;8.610;2023-12-29T08:21:58;100426.91;;;9.52;78.63
74778;BME280;63298;53.164;8.610;2023-12-29T08:25:27;100445.44;;;9.68;78.78
74778;BME280;63298;53.164;8.610;2023-12-29T08:34:42;100420.19;;;9.48;80.24
74778;BME280;63298;53.164;8.610;2023-12-29T08:48:22;100439.69;;;9.58;81.21
74778;BME280;63298;53.164;8.610;2023-12-29T08:55:00;100444.38;;;9.34;79.60
74778;BME280;63298;53.164;8.610;2023-12-29T08:57:48;100466.16;;;9.47;78.52
74778;BME280;63298;53.164;8.610;2023-12-29T09:00:25;100419.94;;;9.38;78.59
74778;BME280;63298;53.164;8.610;2023-12-29T09:03:11;100450.34;;;9.43;77.67
74778;BME280;63298;53.164;8.610;2023-12-29T09:05:51;100466.66;;;9.56;78.18
74778;BME280;63298;53.164;8.610;2023-12-29T09:11:38;100432.16;;;9.30;78.30
74778;BME280;63298;53.164;8.610;2023-12-29T09:24:57;100458.84;;;9.30;79.59
74778;BME280;63298;53.164;8.610;2023-12-29T09:35:05;100471.44;;;9.49;79.03
74778;BME280;63298;53.164;8.610;2023-12-29T09:37:34;100445.94;;;9.30;79.26
74778;BME280;63298;53.164;8.610;2023-12-29T09:40:00;100441.03;;;9.32;79.96
74778;BME280;63298;53.164;8.610;2023-12-29T09:49:01;100454.88;;;9.37;79.17
74778;BME280;63298;53.164;8.610;2023-12-29T09:55:02;100439.69;;;9.35;79.42
74778;BME280;63298;53.164;8.610;2023-12-29T09:57:34;100460.75;;;9.52;79.41
74778;BME280;63298;53.164;8.610;2023-12-29T10:00:22;100452.16;;;9.49;80.36
74778;BME280;63298;53.164;8.610;2023-12-29T10:06:13;100434.22;;;9.46;79.54
74778;BME280;63298;53.164;8.610;2023-12-29T10:08:50;100450.59;;;9.53;80.14
74778;BME280;63298;53.164;8.610;2023-12-29T10:11:18;100452.50;;;9.52;78.86
74778;BME280;63298;53.164;8.610;2023-12-29T10:13:50;100446.03;;;9.59;79.27
74778;BME280;63298;53.164;8.610;2023-12-29T10:16:49;100443.50;;;9.57;79.58
74778;BME280;63298;53.164;8.610;2023-12-29T10:23:13;100424.97;;;9.52;79.38
74778;BME280;63298;53.164;8.610;2023-12-29T10:26:12;100450.38;;;9.66;80.70
74778;BME280;63298;53.164;8.610;2023-12-29T10:28:52;100459.34;;;9.62;81.00
74778;BME280;63298;53.164;8.610;2023-12-29T10:31:23;100438.72;;;9.52;80.84
74778;BME280;63298;53.164;8.610;2023-12-29T10:33:49;100421.63;;;9.39;81.05
74778;BME280;63298;53.164;8.610;2023-12-29T10:36:20;100426.78;;;9.47;80.01
74778;BME280;63298;53.164;8.610;2023-12-29T10:39:05;100408.13;;;9.26;81.18
74778;BME280;63298;53.164;8.610;2023-12-29T10:41:42;100433.34;;;9.34;80.78
74778;BME280;63298;53.164;8.610;2023-12-29T10:44:24;100429.16;;;9.43;80.31
74778;BME280;63298;53.164;8.610;2023-12-29T10:47:00;100423.69;;;9.32;80.81
74778;BME280;63298;53.164;8.610;2023-12-29T10:49:35;100443.19;;;9.42;80.51
74778;BME280;63298;53.164;8.610;2023-12-29T10:52:20;100447.84;;;9.41;79.67
74778;BME280;63298;53.164;8.610;2023-12-29T10:54:48;100404.06;;;9.17;79.63
74778;BME280;63298;53.164;8.610;2023-12-29T10:57:14;100436.81;;;9.30;79.78
74778;BME280;63298;53.164;8.610;2023-12-29T10:59:42;100420.91;;;9.20;79.74
74778;BME280;63298;53.164;8.610;2023-12-29T11:02:30;100430.72;;;9.28;79.61
74778;BME280;63298;53.164;8.610;2023-12-29T11:05:06;100420.41;;;9.23;79.90
74778;BME280;63298;53.164;8.610;2023-12-29T11:07:57;100445.09;;;9.30;80.07
74778;BME280;63298;53.164;8.610;2023-12-29T11:10:42;100458.75;;;9.36;80.12
74778;BME280;63298;53.164;8.610;2023-12-29T11:13:19;100441.38;;;9.36;80.26
74778;BME280;63298;53.164;8.610;2023-12-29T11:16:11;100437.44;;;9.32;80.59
74778;BME280;63298;53.164;8.610;2023-12-29T11:19:10;100448.44;;;9.32;80.20
74778;BME280;63298;53.164;8.610;2023-12-29T11:22:03;100457.75;;;9.42;80.49
74778;BME280;63298;53.164;8.610;2023-12-29T11:24:52;100425.94;;;9.35;80.26
74778;BME280;63298;53.164;8.610;2023-12-29T11:30:48;100412.78;;;9.37;80.94
74778;BME280;63298;53.164;8.610;2023-12-29T11:33:35;100431.47;;;9.46;80.06
74778;BME280;63298;53.164;8.610;2023-12-29T11:36:29;100415.78;;;9.47;80.93
74778;BME280;63298;53.164;8.610;2023-12-29T11:42:55;100439.22;;;9.61;80.58
74778;BME280;63298;53.164;8.610;2023-12-29T11:45:30;100437.53;;;9.60;80.30
74778;BME280;63298;53.164;8.610;2023-12-29T11:55:12;100408.91;;;9.73;81.62
74778;BME280;63298;53.164;8.610;2023-12-29T11:57:56;100393.25;;;9.62;80.50
74778;BME280;63298;53.164;8.610;2023-12-29T12:00:52;100364.88;;;9.49;80.95
74778;BME280;63298;53.164;8.610;2023-12-29T13:03:04;100441.97;;;9.61;76.16
74778;BME280;63298;53.164;8.610;2023-12-29T13:09:10;100424.25;;;9.57;76.23
74778;BME280;63298;53.164;8.610;2023-12-29T13:11:39;100420.41;;;9.58;76.23
74778;BME280;63298;53.164;8.610;2023-12-29T13:14:05;100424.25;;;9.69;76.57
74778;BME280;63298;53.164;8.610;2023-12-29T13:16:35;100421.38;;;9.64;76.99
74778;BME280;63298;53.164;8.610;2023-12-29T13:19:42;100418.97;;;9.67;77.08
74778;BME280;63298;53.164;8.610;2023-12-29T13:22:18;100437.28;;;9.73;77.06
74778;BME280;63298;53.164;8.610;2023-12-29T13:24:56;100426.16;;;9.68;77.52
74778;BME280;63298;53.164;8.610;2023-12-29T13:27:24;100429.63;;;9.75;77.11
74778;BME280;63298;53.164;8.610;2023-12-29T13:32:48;100417.66;;;9.70;77.34
74778;BME280;63298;53.164;8.610;2023-12-29T13:35:25;100445.44;;;9.80;76.81
74778;BME280;63298;53.164;8.610;2023-12-29T13:38:25;100430.94;;;9.73;77.37
74778;BME280;63298;53.164;8.610;2023-12-29T13:41:08;100424.34;;;9.62;77.88
74778;BME280;63298;53.164;8.610;2023-12-29T13:43:36;100442.91;;;9.78;77.55
74778;BME280;63298;53.164;8.610;2023-12-29T13:46:24;100415.41;;;9.67;77.79
74778;BME280;63298;53.164;8.610;2023-12-29T13:48:54;100424.25;;;9.69;77.89
74778;BME280;63298;53.164;8.610;2023-12-29T13:51:38;100431.78;;;9.73;77.96
74778;BME280;63298;53.164;8.610;2023-12-29T13:54:04;100442.69;;;9.80;77.73
74778;BME280;63298;53.164;8.610;2023-12-29T13:56:34;100446.16;;;9.75;79.01
74778;BME280;63298;53.164;8.610;2023-12-29T13:59:06;100420.31;;;9.65;78.76
74778;BME280;63298;53.164;8.610;2023-12-29T14:01:35;100415.63;;;9.65;78.17
74778;BME280;63298;53.164;8.610;2023-12-29T14:04:03;100424.97;;;9.64;79.18
74778;BME280;63298;53.164;8.610;2023-12-29T14:06:43;100419.69;;;9.63;79.04
74778;BME280;63298;53.164;8.610;2023-12-29T14:09:17;100426.88;;;9.64;78.91
74778;BME280;63298;53.164;8.610;2023-12-29T14:11:46;100458.97;;;9.81;79.04
74778;BME280;63298;53.164;8.610;2023-12-29T14:14:12;100428.78;;;9.63;78.81
74778;BME280;63298;53.164;8.610;2023-12-29T14:16:39;100427.50;;;9.66;78.51
74778;BME280;63298;53.164;8.610;2023-12-29T14:19:10;100433.72;;;9.61;78.04
74778;BME280;63298;53.164;8.610;2023-12-29T14:21:36;100435.97;;;9.64;78.37
74778;BME280;63298;53.164;8.610;2023-12-29T14:24:12;100444.34;;;9.58;77.91
74778;BME280;63298;53.164;8.610;2023-12-29T14:29:21;100453.56;;;9.63;78.10
74778;BME280;63298;53.164;8.610;2023-12-29T14:31:50;100461.72;;;9.70;77.31
74778;BME280;63298;53.164;8.610;2023-12-29T14:34:19;100459.56;;;9.60;76.66
74778;BME280;63298;53.164;8.610;2023-12-29T15:08:03;100444.13;;;9.36;74.25
74778;BME280;63298;53.164;8.610;2023-12-29T15:10:40;100437.53;;;9.48;74.10
74778;BME280;63298;53.164;8.610;2023-12-29T15:13:06;100442.56;;;9.40;73.94
74778;BME280;63298;53.164;8.610;2023-12-29T15:15:31;100469.97;;;9.58;74.13
74778;BME280;63298;53.164;8.610;2023-12-29T15:17:57;100462.69;;;9.40;73.80
74778;BME280;63298;53.164;8.610;2023-12-29T15:20:22;100447.25;;;9.39;73.35
74778;BME280;63298;53.164;8.610;2023-12-29T15:22:48;100449.16;;;9.39;72.90
74778;BME280;63298;53.164;8.610;2023-12-29T15:25:14;100461.00;;;9.39;73.49
74778;BME280;63298;53.164;8.610;2023-12-29T15:27:42;100459.22;;;9.45;74.60
74778;BME280;63298;53.164;8.610;2023-12-29T15:30:08;100450.34;;;9.43;74.23
74778;BME280;63298;53.164;8.610;2023-12-29T15:32:34;100451.44;;;9.42;74.07
74778;BME280;63298;53.164;8.610;2023-12-29T15:35:01;100467.94;;;9.53;74.56
74778;BME280;63298;53.164;8.610;2023-12-29T15:37:27;100466.66;;;9.56;74.35
74778;BME280;63298;53.164;8.610;2023-12-29T15:39:52;100454.56;;;9.45;74.49
74778;BME280;63298;53.164;8.610;2023-12-29T15:42:21;100467.09;;;9.53;74.86
74778;BME280;63298;53.164;8.610;2023-12-29T15:44:46;100479.22;;;9.52;74.60
74778;BME280;63298;53.164;8.610;2023-12-29T15:47:17;100460.91;;;9.46;74.01
74778;BME280;63298;53.164;8.610;2023-12-29T15:49:48;100465.56;;;9.45;74.75
74778;BME280;63298;53.164;8.610;2023-12-29T15:52:13;100461.84;;;9.40;74.64
74778;BME280;63298;53.164;8.610;2023-12-29T15:54:39;100453.84;;;9.27;75.33
74778;BME280;63298;53.164;8.610;2023-12-29T15:57:05;100484.72;;;9.40;74.83
74778;BME280;63298;53.164;8.610;2023-12-29T15:59:30;100474.28;;;9.31;74.19
74778;BME280;63298;53.164;8.610;2023-12-29T16:01:56;100463.06;;;9.32;75.06
74778;BME280;63298;53.164;8.610;2023-12-29T16:04:21;100454.06;;;9.25;75.01
74778;BME280;63298;53.164;8.610;2023-12-29T16:06:47;100462.22;;;9.32;74.38
74778;BME280;63298;53.164;8.610;2023-12-29T16:09:12;100479.31;;;9.34;74.14
74778;BME280;63298;53.164;8.610;2023-12-29T16:11:38;100471.31;;;9.32;74.58
74778;BME280;63298;53.164;8.610;2023-12-29T16:14:03;100488.53;;;9.39;74.67
74778;BME280;63298;53.164;8.610;2023-12-29T16:16:29;100462.31;;;9.25;74.14
74778;BME280;63298;53.164;8.610;2023-12-29T16:18:57;100458.22;;;9.28;73.91
74778;BME280;63298;53.164;8.610;2023-12-29T16:21:23;100452.16;;;9.26;74.73
74778;BME280;63298;53.164;8.610;2023-12-29T16:23:48;100448.31;;;9.27;74.31
74778;BME280;63298;53.164;8.610;2023-12-29T16:26:14;100453.09;;;9.20;74.41
74778;BME280;63298;53.164;8.610;2023-12-29T16:28:39;100468.78;;;9.31;74.27
74778;BME280;63298;53.164;8.610;2023-12-29T16:31:06;100451.66;;;9.17;74.11
74778;BME280;63298;53.164;8.610;2023-12-29T16:33:32;100451.19;;;9.20;74.53
74778;BME280;63298;53.164;8.610;2023-12-29T16:36:09;100460.28;;;9.21;75.14
74778;BME280;63298;53.164;8.610;2023-12-29T16:38:35;100455.72;;;9.15;74.65
74778;BME280;63298;53.164;8.610;2023-12-29T16:41:01;100453.44;;;9.12;74.12
74778;BME280;63298;53.164;8.610;2023-12-29T16:43:26;100452.63;;;9.11;74.46
74778;BME280;63298;53.164;8.610;2023-12-29T16:45:52;100463.63;;;9.23;74.51
74778;BME280;63298;53.164;8.610;2023-12-29T16:48:17;100485.75;;;9.28;74.11
74778;BME280;63298;53.164;8.610;2023-12-29T16:50:43;100479.91;;;9.24;74.29
74778;BME280;63298;53.164;8.610;2023-12-29T16:53:09;100467.34;;;9.17;74.38
74778;BME280;63298;53.164;8.610;2023-12-29T16:55:34;100463.25;;;9.19;74.54
74778;BME280;63298;53.164;8.610;2023-12-29T16:58:00;100449.84;;;9.11;74.34
74778;BME280;63298;53.164;8.610;2023-12-29T17:00:28;100468.31;;;9.22;74.00
74778;BME280;63298;53.164;8.610;2023-12-29T17:02:57;100477.16;;;9.24;74.00
74778;BME280;63298;53.164;8.610;2023-12-29T17:05:24;100477.75;;;9.26;73.98
74778;BME280;63298;53.164;8.610;2023-12-29T17:07:50;100457.97;;;9.18;74.12
74778;BME280;63298;53.164;8.610;2023-12-29T17:10:15;100437.03;;;9.05;74.03
74778;BME280;63298;53.164;8.610;2023-12-29T17:12:41;100455.50;;;9.16;73.79
74778;BME280;63298;53.164;8.610;2023-12-29T17:15:07;100445.91;;;9.07;74.18
74778;BME280;63298;53.164;8.610;2023-12-29T17:17:33;100444.47;;;9.04;74.84
74778;BME280;63298;53.164;8.610;2023-12-29T17:19:58;100472.84;;;9.17;74.65
74778;BME280;63298;53.164;8.610;2023-12-29T17:22:30;100444.81;;;9.08;74.11
74778;BME280;63298;53.164;8.610;2023-12-29T17:24:56;100437.28;;;9.03;74.38
74778;BME280;63298;53.164;8.610;2023-12-29T17:27:24;100443.03;;;9.14;74.32
74778;BME280;63298;53.164;8.610;2023-12-29T17:29:55;100433.13;;;9.13;74.46
74778;BME280;63298;53.164;8.610;2023-12-29T17:32:21;100408.69;;;9.04;74.38
74778;BME280;63298;53.164;8.610;2023-12-29T17:34:55;100415.03;;;9.05;74.38
74778;BME280;63298;53.164;8.610;2023-12-29T17:37:21;100412.06;;;9.06;74.72
74778;BME280;63298;53.164;8.610;2023-12-29T17:39:49;100418.84;;;9.04;74.96
74778;BME280;63298;53.164;8.610;2023-12-29T17:42:15;100426.38;;;9.08;74.99
74778;BME280;63298;53.164;8.610;2023-12-29T17:44:41;100425.56;;;8.96;75.40
74778;BME280;63298;53.164;8.610;2023-12-29T17:47:07;100427.09;;;8.92;75.25
74778;BME280;63298;53.164;8.610;2023-12-29T17:49:33;100439.31;;;8.96;75.26
74778;BME280;63298;53.164;8.610;2023-12-29T17:51:58;100427.94;;;8.93;75.22
74778;BME280;63298;53.164;8.610;2023-12-29T17:54:24;100441.56;;;8.99;75.50
74778;BME280;63298;53.164;8.610;2023-12-29T17:56:51;100427.81;;;8.88;76.31
74778;BME280;63298;53.164;8.610;2023-12-29T17:59:16;100435.75;;;9.07;75.17
74778;BME280;63298;53.164;8.610;2023-12-29T18:01:50;100405.81;;;8.88;75.83
74778;BME280;63298;53.164;8.610;2023-12-29T18:04:15;100437.03;;;9.05;75.91
74778;BME280;63298;53.164;8.610;2023-12-29T18:06:41;100446.00;;;9.00;75.17
74778;BME280;63298;53.164;8.610;2023-12-29T18:09:07;100464.06;;;9.08;75.26
74778;BME280;63298;53.164;8.610;2023-12-29T18:11:33;100457.00;;;9.00;76.32
74778;BME280;63298;53.164;8.610;2023-12-29T18:14:06;100477.25;;;9.06;76.31
74778;BME280;63298;53.164;8.610;2023-12-29T18:16:32;100473.03;;;9.03;76.42
74778;BME280;63298;53.164;8.610;2023-12-29T18:18:57;100461.78;;;8.93;75.75
74778;BME280;63298;53.164;8.610;2023-12-29T18:24:22;100457.50;;;8.97;75.73
74778;BME280;63298;53.164;8.610;2023-12-29T18:27:03;100485.41;;;9.13;76.00
74778;BME280;63298;53.164;8.610;2023-12-29T18:29:31;100480.47;;;9.15;75.28
74778;BME280;63298;53.164;8.610;2023-12-29T18:32:06;100471.97;;;9.04;75.21
74778;BME280;63298;53.164;8.610;2023-12-29T18:34:34;100451.03;;;9.03;75.86
74778;BME280;63298;53.164;8.610;2023-12-29T18:37:02;100465.28;;;9.00;74.37
74778;BME280;63298;53.164;8.610;2023-12-29T18:39:42;100475.06;;;9.08;74.15